sensor_id;sensor_type;location;lat;lon;timestamp;temperature;humidity
7496;DHT22;3789;47.064;15.482;2023-12-14T00:01:06;3.70;99.90
7496;DHT22;3789;47.064;15.482;2023-12-14T00:03:41;3.80;99.90
7496;DHT22;3789;47.064;15.482;2023-12-14T00:06:14;3.90;99.90
7496;DHT22;3789;47.064;15.482;2023-12-14T00:08:46;4.00;99.90
7496;DHT22;3789;47.064;15.482;2023-12-14T00:11:18;4.10;99.90
7496;DHT22;3789;47.064;15.482;2023-12-14T00:13:46;4.10;99.90
7496;DHT22;3789;47.064;15.482;2023-12-14T00:16:24;4.20;99.90
7496;DHT22;3789;47.064;15.482;2023-12-14T00:18:52;4.20;99.90
7496;DHT22;3789;47.064;15.482;2023-12-14T00:21:21;4.20;99.90
7496;DHT22;3789;47.064;15.482;2023-12-14T00:23:54;4.20;99.90
7496;DHT22;3789;47.064;15.482;2023-12-14T00:26:25;4.10;99.90
7496;DHT22;3789;47.064;15.482;2023-12-14T00:28:54;4.00;99.90
7496;DHT22;3789;47.064;15.482;2023-12-14T00:31:32;4.10;99.90
7496;DHT22;3789;47.064;15.482;2023-12-14T00:34:01;4.10;99.90
7496;DHT22;3789;47.064;15.482;2023-12-14T00:36:32;4.10;99.90
7496;DHT22;3789;47.064;15.482;2023-12-14T00:39:01;4.00;99.90
7496;DHT22;3789;47.064;15.482;2023-12-14T00:41:30;4.10;99.90
7496;DHT22;3789;47.064;15.482;2023-12-14T00:44:00;4.10;99.90
7496;DHT22;3789;47.064;15.482;2023-12-14T00:46:30;4.20;99.90
7496;DHT22;3789;47.064;15.482;2023-12-14T00:49:05;4.20;99.90
7496;DHT22;3789;47.064;15.482;2023-12-14T00:51:38;4.10;99.90
7496;DHT22;3789;47.064;15.482;2023-12-14T00:54:07;4.20;99.90
7496;DHT22;3789;47.064;15.482;2023-12-14T00:56:37;4.10;99.90
7496;DHT22;3789;47.064;15.482;2023-12-14T00:59:06;3.90;99.90
7496;DHT22;3789;47.064;15.482;2023-12-14T01:01:37;3.70;99.90
7496;DHT22;3789;47.064;15.482;2023-12-14T01:04:08;3.60;99.90
7496;DHT22;3789;47.064;15.482;2023-12-14T01:06:44;3.60;99.90
7496;DHT22;3789;47.064;15.482;2023-12-14T01:09:17;3.90;99.90
7496;DHT22;3789;47.064;15.482;2023-12-14T01:11:47;4.00;99.90
7496;DHT22;3789;47.064;15.482;2023-12-14T01:14:18;4.00;99.90
7496;DHT22;3789;47.064;15.482;2023-12-14T01:16:45;4.00;99.90
7496;DHT22;3789;47.064;15.482;2023-12-14T01:19:14;4.00;99.90
7496;DHT22;3789;47.064;15.482;2023-12-14T01:21:45;3.90;99.90
7496;DHT22;3789;47.064;15.482;2023-12-14T01:24:20;3.90;99.90
7496;DHT22;3789;47.064;15.482;2023-12-14T01:26:52;3.90;99.90
7496;DHT22;3789;47.064;15.482;2023-12-14T01:29:22;3.90;99.90
7496;DHT22;3789;47.064;15.482;2023-12-14T01:32:03;3.90;99.90
7496;DHT22;3789;47.064;15.482;2023-12-14T01:34:35;3.90;99.90
7496;DHT22;3789;47.064;15.482;2023-12-14T01:37:07;4.00;99.90
7496;DHT22;3789;47.064;15.482;2023-12-14T01:39:40;4.00;99.90
7496;DHT22;3789;47.064;15.482;2023-12-14T01:42:10;3.90;99.90
7496;DHT22;3789;47.064;15.482;2023-12-14T01:44:46;4.00;99.90
7496;DHT22;3789;47.064;15.482;2023-12-14T01:47:17;4.00;99.90
7496;DHT22;3789;47.064;15.482;2023-12-14T01:49:53;4.00;99.90
7496;DHT22;3789;47.064;15.482;2023-12-14T01:52:22;4.00;99.90
7496;DHT22;3789;47.064;15.482;2023-12-14T01:54:51;3.80;99.90
7496;DHT22;3789;47.064;15.482;2023-12-14T01:57:25;3.70;99.90
7496;DHT22;3789;47.064;15.482;2023-12-14T01:59:54;3.70;99.90
7496;DHT22;3789;47.064;15.482;2023-12-14T02:02:25;3.50;99.90
7496;DHT22;3789;47.064;15.482;2023-12-14T02:04:53;3.60;99.90
7496;DHT22;3789;47.064;15.482;2023-12-14T02:07:38;3.50;99.90
7496;DHT22;3789;47.064;15.482;2023-12-14T02:10:09;3.50;99.90
7496;DHT22;3789;47.064;15.482;2023-12-14T02:12:46;3.50;99.90
7496;DHT22;3789;47.064;15.482;2023-12-14T02:15:23;3.50;99.90
7496;DHT22;3789;47.064;15.482;2023-12-14T02:18:05;3.60;99.90
7496;DHT22;3789;47.064;15.482;2023-12-14T02:20:35;3.50;99.90
7496;DHT22;3789;47.064;15.482;2023-12-14T02:23:03;3.50;99.90
7496;DHT22;3789;47.064;15.482;2023-12-14T02:25:33;3.50;99.90
7496;DHT22;3789;47.064;15.482;2023-12-14T02:28:07;3.50;99.90
7496;DHT22;3789;47.064;15.482;2023-12-14T02:30:35;3.50;99.90
7496;DHT22;3789;47.064;15.482;2023-12-14T02:33:05;3.50;99.90
7496;DHT22;3789;47.064;15.482;2023-12-14T02:35:34;3.60;99.90
7496;DHT22;3789;47.064;15.482;2023-12-14T02:38:02;3.70;99.90
7496;DHT22;3789;47.064;15.482;2023-12-14T02:40:34;3.60;99.90
7496;DHT22;3789;47.064;15.482;2023-12-14T02:43:02;3.70;99.90
7496;DHT22;3789;47.064;15.482;2023-12-14T02:45:40;4.00;99.90
7496;DHT22;3789;47.064;15.482;2023-12-14T02:48:09;3.90;99.90
7496;DHT22;3789;47.064;15.482;2023-12-14T02:50:40;3.90;99.90
7496;DHT22;3789;47.064;15.482;2023-12-14T02:53:18;4.00;99.90
7496;DHT22;3789;47.064;15.482;2023-12-14T02:55:47;4.00;99.90
7496;DHT22;3789;47.064;15.482;2023-12-14T02:58:17;4.10;99.90
7496;DHT22;3789;47.064;15.482;2023-12-14T03:00:46;4.00;99.90
7496;DHT22;3789;47.064;15.482;2023-12-14T03:03:23;3.90;99.90
7496;DHT22;3789;47.064;15.482;2023-12-14T03:06:00;3.70;99.90
7496;DHT22;3789;47.064;15.482;2023-12-14T03:08:34;3.70;99.90
7496;DHT22;3789;47.064;15.482;2023-12-14T03:11:02;3.70;99.90
7496;DHT22;3789;47.064;15.482;2023-12-14T03:13:32;3.70;99.90
7496;DHT22;3789;47.064;15.482;2023-12-14T03:16:09;3.60;99.90
7496;DHT22;3789;47.064;15.482;2023-12-14T03:18:47;3.60;99.90
7496;DHT22;3789;47.064;15.482;2023-12-14T03:21:24;3.50;99.90
7496;DHT22;3789;47.064;15.482;2023-12-14T03:23:54;3.50;99.90
7496;DHT22;3789;47.064;15.482;2023-12-14T03:26:24;3.50;99.90
7496;DHT22;3789;47.064;15.482;2023-12-14T03:28:54;3.60;99.90
7496;DHT22;3789;47.064;15.482;2023-12-14T03:31:34;3.70;99.90
7496;DHT22;3789;47.064;15.482;2023-12-14T03:34:07;3.60;99.90
7496;DHT22;3789;47.064;15.482;2023-12-14T03:36:52;3.60;99.90
7496;DHT22;3789;47.064;15.482;2023-12-14T03:39:23;3.60;99.90
7496;DHT22;3789;47.064;15.482;2023-12-14T03:41:52;3.50;99.90
7496;DHT22;3789;47.064;15.482;2023-12-14T03:44:23;3.50;99.90
7496;DHT22;3789;47.064;15.482;2023-12-14T03:47:00;3.50;99.90
7496;DHT22;3789;47.064;15.482;2023-12-14T03:49:38;3.50;99.90
7496;DHT22;3789;47.064;15.482;2023-12-14T03:52:07;3.70;99.90
7496;DHT22;3789;47.064;15.482;2023-12-14T03:54:38;3.70;99.90
7496;DHT22;3789;47.064;15.482;2023-12-14T03:57:09;3.60;99.90
7496;DHT22;3789;47.064;15.482;2023-12-14T03:59:48;3.50;99.90
7496;DHT22;3789;47.064;15.482;2023-12-14T04:02:17;3.50;99.90
7496;DHT22;3789;47.064;15.482;2023-12-14T04:04:48;3.50;99.90
7496;DHT22;3789;47.064;15.482;2023-12-14T04:07:19;3.50;99.90
7496;DHT22;3789;47.064;15.482;2023-12-14T04:09:56;3.50;99.90
7496;DHT22;3789;47.064;15.482;2023-12-14T04:12:26;3.50;99.90
7496;DHT22;3789;47.064;15.482;2023-12-14T04:14:55;3.50;99.90
7496;DHT22;3789;47.064;15.482;2023-12-14T04:17:26;3.50;99.90
7496;DHT22;3789;47.064;15.482;2023-12-14T04:20:04;3.50;99.90
7496;DHT22;3789;47.064;15.482;2023-12-14T04:22:41;3.50;99.90
7496;DHT22;3789;47.064;15.482;2023-12-14T04:28:50;3.50;99.90
7496;DHT22;3789;47.064;15.482;2023-12-14T04:31:51;3.50;99.90
7496;DHT22;3789;47.064;15.482;2023-12-14T04:34:51;3.40;99.90
7496;DHT22;3789;47.064;15.482;2023-12-14T04:37:47;3.40;99.90
7496;DHT22;3789;47.064;15.482;2023-12-14T04:41:19;3.30;99.90
7496;DHT22;3789;47.064;15.482;2023-12-14T04:44:22;3.30;99.90
7496;DHT22;3789;47.064;15.482;2023-12-14T04:47:24;3.30;99.90
7496;DHT22;3789;47.064;15.482;2023-12-14T04:50:03;3.20;99.90
7496;DHT22;3789;47.064;15.482;2023-12-14T04:52:43;3.20;99.90
7496;DHT22;3789;47.064;15.482;2023-12-14T04:55:36;3.30;99.90
7496;DHT22;3789;47.064;15.482;2023-12-14T04:58:32;3.30;99.90
7496;DHT22;3789;47.064;15.482;2023-12-14T05:01:30;3.30;99.90
7496;DHT22;3789;47.064;15.482;2023-12-14T05:04:48;3.40;99.90
7496;DHT22;3789;47.064;15.482;2023-12-14T05:07:38;3.30;99.90
7496;DHT22;3789;47.064;15.482;2023-12-14T05:11:03;3.30;99.90
7496;DHT22;3789;47.064;15.482;2023-12-14T05:16:31;3.50;99.90
7496;DHT22;3789;47.064;15.482;2023-12-14T05:19:45;3.30;99.90
7496;DHT22;3789;47.064;15.482;2023-12-14T05:22:19;3.20;99.90
7496;DHT22;3789;47.064;15.482;2023-12-14T05:25:19;3.20;99.90
7496;DHT22;3789;47.064;15.482;2023-12-14T05:28:07;3.30;99.90
7496;DHT22;3789;47.064;15.482;2023-12-14T05:30:58;3.30;99.90
7496;DHT22;3789;47.064;15.482;2023-12-14T05:33:54;3.20;99.90
7496;DHT22;3789;47.064;15.482;2023-12-14T05:36:36;3.30;99.90
7496;DHT22;3789;47.064;15.482;2023-12-14T05:40:03;3.30;99.90
7496;DHT22;3789;47.064;15.482;2023-12-14T05:45:56;3.30;99.90
7496;DHT22;3789;47.064;15.482;2023-12-14T05:49:08;3.30;99.90
7496;DHT22;3789;47.064;15.482;2023-12-14T05:52:09;3.30;99.90
7496;DHT22;3789;47.064;15.482;2023-12-14T05:55:15;3.30;99.90
7496;DHT22;3789;47.064;15.482;2023-12-14T05:58:05;3.30;99.90
7496;DHT22;3789;47.064;15.482;2023-12-14T06:00:40;3.40;99.90
7496;DHT22;3789;47.064;15.482;2023-12-14T06:03:45;3.50;99.90
7496;DHT22;3789;47.064;15.482;2023-12-14T06:13:33;3.30;99.90
7496;DHT22;3789;47.064;15.482;2023-12-14T06:16:42;3.30;99.90
7496;DHT22;3789;47.064;15.482;2023-12-14T06:19:15;3.30;99.90
7496;DHT22;3789;47.064;15.482;2023-12-14T06:22:07;3.30;99.90
7496;DHT22;3789;47.064;15.482;2023-12-14T06:28:04;3.30;99.90
7496;DHT22;3789;47.064;15.482;2023-12-14T06:30:48;3.30;99.90
7496;DHT22;3789;47.064;15.482;2023-12-14T06:33:22;3.30;99.90
7496;DHT22;3789;47.064;15.482;2023-12-14T06:36:03;3.30;99.90
7496;DHT22;3789;47.064;15.482;2023-12-14T06:38:40;3.30;99.90
7496;DHT22;3789;47.064;15.482;2023-12-14T06:41:33;3.30;99.90
7496;DHT22;3789;47.064;15.482;2023-12-14T06:44:25;3.40;99.90
7496;DHT22;3789;47.064;15.482;2023-12-14T06:47:09;3.40;99.90
7496;DHT22;3789;47.064;15.482;2023-12-14T06:49:56;3.30;99.90
7496;DHT22;3789;47.064;15.482;2023-12-14T06:53:04;3.30;99.90
7496;DHT22;3789;47.064;15.482;2023-12-14T06:55:45;3.30;99.90
7496;DHT22;3789;47.064;15.482;2023-12-14T06:58:48;3.30;99.90
7496;DHT22;3789;47.064;15.482;2023-12-14T07:01:49;3.40;99.90
7496;DHT22;3789;47.064;15.482;2023-12-14T07:04:18;3.40;99.90
7496;DHT22;3789;47.064;15.482;2023-12-14T07:10:51;3.40;99.90
7496;DHT22;3789;47.064;15.482;2023-12-14T07:13:54;3.50;99.90
7496;DHT22;3789;47.064;15.482;2023-12-14T07:16:49;3.50;99.90
7496;DHT22;3789;47.064;15.482;2023-12-14T07:19:45;3.50;99.90
7496;DHT22;3789;47.064;15.482;2023-12-14T07:22:33;3.50;99.90
7496;DHT22;3789;47.064;15.482;2023-12-14T07:25:31;3.60;99.90
7496;DHT22;3789;47.064;15.482;2023-12-14T07:28:28;3.60;99.90
7496;DHT22;3789;47.064;15.482;2023-12-14T07:30:57;3.60;99.90
7496;DHT22;3789;47.064;15.482;2023-12-14T07:33:32;3.70;99.90
7496;DHT22;3789;47.064;15.482;2023-12-14T07:36:18;3.70;99.90
7496;DHT22;3789;47.064;15.482;2023-12-14T07:38:59;3.70;99.90
7496;DHT22;3789;47.064;15.482;2023-12-14T07:42:08;3.80;99.90
7496;DHT22;3789;47.064;15.482;2023-12-14T07:45:06;3.80;99.90
7496;DHT22;3789;47.064;15.482;2023-12-14T07:47:55;3.80;99.90
7496;DHT22;3789;47.064;15.482;2023-12-14T07:51:20;3.90;99.90
7496;DHT22;3789;47.064;15.482;2023-12-14T07:54:09;3.90;99.90
7496;DHT22;3789;47.064;15.482;2023-12-14T07:56:54;4.00;99.90
7496;DHT22;3789;47.064;15.482;2023-12-14T07:59:47;4.00;99.90
7496;DHT22;3789;47.064;15.482;2023-12-14T08:02:47;4.10;99.90
7496;DHT22;3789;47.064;15.482;2023-12-14T08:05:30;4.30;99.90
7496;DHT22;3789;47.064;15.482;2023-12-14T08:08:00;4.40;99.90
7496;DHT22;3789;47.064;15.482;2023-12-14T08:10:27;4.40;99.90
7496;DHT22;3789;47.064;15.482;2023-12-14T08:13:11;4.40;99.90
7496;DHT22;3789;47.064;15.482;2023-12-14T08:15:40;4.40;99.90
7496;DHT22;3789;47.064;15.482;2023-12-14T08:18:10;4.40;99.90
7496;DHT22;3789;47.064;15.482;2023-12-14T08:20:39;4.30;99.90
7496;DHT22;3789;47.064;15.482;2023-12-14T08:23:12;4.30;99.90
7496;DHT22;3789;47.064;15.482;2023-12-14T08:26:13;4.50;99.90
7496;DHT22;3789;47.064;15.482;2023-12-14T08:28:43;4.50;99.90
7496;DHT22;3789;47.064;15.482;2023-12-14T08:31:13;4.50;99.90
7496;DHT22;3789;47.064;15.482;2023-12-14T08:33:45;4.50;99.90
7496;DHT22;3789;47.064;15.482;2023-12-14T08:36:18;4.50;99.90
7496;DHT22;3789;47.064;15.482;2023-12-14T08:38:49;4.60;99.90
7496;DHT22;3789;47.064;15.482;2023-12-14T08:41:19;4.70;99.90
7496;DHT22;3789;47.064;15.482;2023-12-14T08:43:51;4.80;99.90
7496;DHT22;3789;47.064;15.482;2023-12-14T08:46:21;4.80;99.90
7496;DHT22;3789;47.064;15.482;2023-12-14T08:48:57;5.00;99.90
7496;DHT22;3789;47.064;15.482;2023-12-14T08:51:35;5.00;99.90
7496;DHT22;3789;47.064;15.482;2023-12-14T08:54:08;5.00;99.90
7496;DHT22;3789;47.064;15.482;2023-12-14T08:56:43;5.10;99.90
7496;DHT22;3789;47.064;15.482;2023-12-14T08:59:12;5.20;99.90
7496;DHT22;3789;47.064;15.482;2023-12-14T09:01:39;5.10;99.90
7496;DHT22;3789;47.064;15.482;2023-12-14T09:04:11;5.20;99.90
7496;DHT22;3789;47.064;15.482;2023-12-14T09:06:42;5.30;99.90
7496;DHT22;3789;47.064;15.482;2023-12-14T09:09:16;5.30;99.90
7496;DHT22;3789;47.064;15.482;2023-12-14T09:11:49;5.50;99.90
7496;DHT22;3789;47.064;15.482;2023-12-14T09:14:21;5.40;99.90
7496;DHT22;3789;47.064;15.482;2023-12-14T09:16:51;5.30;99.90
7496;DHT22;3789;47.064;15.482;2023-12-14T09:19:21;5.30;99.90
7496;DHT22;3789;47.064;15.482;2023-12-14T09:21:52;5.40;99.90
7496;DHT22;3789;47.064;15.482;2023-12-14T09:24:20;5.30;99.90
7496;DHT22;3789;47.064;15.482;2023-12-14T09:26:51;5.30;99.90
7496;DHT22;3789;47.064;15.482;2023-12-14T09:29:22;5.30;99.90
7496;DHT22;3789;47.064;15.482;2023-12-14T09:31:51;5.30;99.90
7496;DHT22;3789;47.064;15.482;2023-12-14T09:34:23;5.40;99.90
7496;DHT22;3789;47.064;15.482;2023-12-14T09:36:52;5.40;99.90
7496;DHT22;3789;47.064;15.482;2023-12-14T09:39:23;5.50;99.90
7496;DHT22;3789;47.064;15.482;2023-12-14T09:42:07;5.60;99.90
7496;DHT22;3789;47.064;15.482;2023-12-14T09:44:38;5.70;99.90
7496;DHT22;3789;47.064;15.482;2023-12-14T09:47:10;5.80;99.90
7496;DHT22;3789;47.064;15.482;2023-12-14T09:49:41;5.80;99.90
7496;DHT22;3789;47.064;15.482;2023-12-14T09:52:13;5.80;99.90
7496;DHT22;3789;47.064;15.482;2023-12-14T09:54:45;5.80;99.90
7496;DHT22;3789;47.064;15.482;2023-12-14T09:57:14;6.00;99.90
7496;DHT22;3789;47.064;15.482;2023-12-14T09:59:54;6.10;99.90
7496;DHT22;3789;47.064;15.482;2023-12-14T10:02:28;6.20;99.90
7496;DHT22;3789;47.064;15.482;2023-12-14T10:04:56;6.30;99.90
7496;DHT22;3789;47.064;15.482;2023-12-14T10:07:45;6.30;99.90
7496;DHT22;3789;47.064;15.482;2023-12-14T10:10:16;6.20;99.90
7496;DHT22;3789;47.064;15.482;2023-12-14T10:12:55;6.20;99.90
7496;DHT22;3789;47.064;15.482;2023-12-14T10:15:26;6.30;99.90
7496;DHT22;3789;47.064;15.482;2023-12-14T10:17:56;6.30;99.90
7496;DHT22;3789;47.064;15.482;2023-12-14T10:20:30;6.40;99.90
7496;DHT22;3789;47.064;15.482;2023-12-14T10:23:00;6.40;99.90
7496;DHT22;3789;47.064;15.482;2023-12-14T10:25:29;6.30;99.90
7496;DHT22;3789;47.064;15.482;2023-12-14T10:28:06;6.30;99.90
7496;DHT22;3789;47.064;15.482;2023-12-14T10:30:42;6.30;99.90
7496;DHT22;3789;47.064;15.482;2023-12-14T10:33:12;6.30;99.90
7496;DHT22;3789;47.064;15.482;2023-12-14T10:35:44;6.40;99.90
7496;DHT22;3789;47.064;15.482;2023-12-14T10:38:17;6.40;99.90
7496;DHT22;3789;47.064;15.482;2023-12-14T10:40:49;6.40;99.90
7496;DHT22;3789;47.064;15.482;2023-12-14T10:43:19;6.50;99.90
7496;DHT22;3789;47.064;15.482;2023-12-14T10:46:09;6.50;99.90
7496;DHT22;3789;47.064;15.482;2023-12-14T10:48:45;6.70;99.90
7496;DHT22;3789;47.064;15.482;2023-12-14T10:51:24;6.80;99.90
7496;DHT22;3789;47.064;15.482;2023-12-14T10:53:57;6.80;99.90
7496;DHT22;3789;47.064;15.482;2023-12-14T10:56:31;6.80;99.90
7496;DHT22;3789;47.064;15.482;2023-12-14T10:59:00;6.90;99.90
7496;DHT22;3789;47.064;15.482;2023-12-14T11:01:35;7.00;99.90
7496;DHT22;3789;47.064;15.482;2023-12-14T11:04:07;7.00;99.90
7496;DHT22;3789;47.064;15.482;2023-12-14T11:06:45;7.10;99.90
7496;DHT22;3789;47.064;15.482;2023-12-14T11:09:18;7.20;99.90
7496;DHT22;3789;47.064;15.482;2023-12-14T11:11:56;7.40;99.90
7496;DHT22;3789;47.064;15.482;2023-12-14T11:14:28;7.40;99.90
7496;DHT22;3789;47.064;15.482;2023-12-14T11:17:06;7.40;99.90
7496;DHT22;3789;47.064;15.482;2023-12-14T11:19:36;7.30;99.90
7496;DHT22;3789;47.064;15.482;2023-12-14T11:24:55;7.40;99.90
7496;DHT22;3789;47.064;15.482;2023-12-14T11:27:29;7.40;99.90
7496;DHT22;3789;47.064;15.482;2023-12-14T11:30:00;7.50;99.90
7496;DHT22;3789;47.064;15.482;2023-12-14T11:32:29;7.60;99.90
7496;DHT22;3789;47.064;15.482;2023-12-14T11:34:58;7.70;99.90
7496;DHT22;3789;47.064;15.482;2023-12-14T11:37:37;7.60;99.90
7496;DHT22;3789;47.064;15.482;2023-12-14T11:40:09;7.60;99.90
7496;DHT22;3789;47.064;15.482;2023-12-14T11:42:40;7.70;99.90
7496;DHT22;3789;47.064;15.482;2023-12-14T11:45:22;7.80;99.90
7496;DHT22;3789;47.064;15.482;2023-12-14T11:47:51;7.70;99.90
7496;DHT22;3789;47.064;15.482;2023-12-14T11:50:24;7.70;99.90
7496;DHT22;3789;47.064;15.482;2023-12-14T11:53:07;7.70;99.90
7496;DHT22;3789;47.064;15.482;2023-12-14T11:55:38;7.80;99.90
7496;DHT22;3789;47.064;15.482;2023-12-14T11:58:35;7.80;99.90
7496;DHT22;3789;47.064;15.482;2023-12-14T12:01:21;7.90;99.90
7496;DHT22;3789;47.064;15.482;2023-12-14T12:03:53;7.80;99.90
7496;DHT22;3789;47.064;15.482;2023-12-14T12:06:23;7.70;99.90
7496;DHT22;3789;47.064;15.482;2023-12-14T12:08:59;7.60;99.90
7496;DHT22;3789;47.064;15.482;2023-12-14T12:11:36;7.50;99.90
7496;DHT22;3789;47.064;15.482;2023-12-14T12:14:07;7.40;99.90
7496;DHT22;3789;47.064;15.482;2023-12-14T12:16:36;7.30;99.90
7496;DHT22;3789;47.064;15.482;2023-12-14T12:19:10;7.30;99.90
7496;DHT22;3789;47.064;15.482;2023-12-14T12:21:41;7.30;99.90
7496;DHT22;3789;47.064;15.482;2023-12-14T12:24:10;7.30;99.90
7496;DHT22;3789;47.064;15.482;2023-12-14T12:26:56;7.40;99.90
7496;DHT22;3789;47.064;15.482;2023-12-14T12:29:23;7.40;99.90
7496;DHT22;3789;47.064;15.482;2023-12-14T12:31:54;7.40;99.90
7496;DHT22;3789;47.064;15.482;2023-12-14T12:34:23;7.60;99.90
7496;DHT22;3789;47.064;15.482;2023-12-14T12:37:02;7.70;99.90
7496;DHT22;3789;47.064;15.482;2023-12-14T12:39:39;7.80;99.90
7496;DHT22;3789;47.064;15.482;2023-12-14T12:42:17;7.90;99.90
7496;DHT22;3789;47.064;15.482;2023-12-14T12:44:52;8.00;99.90
7496;DHT22;3789;47.064;15.482;2023-12-14T12:47:25;8.20;99.90
7496;DHT22;3789;47.064;15.482;2023-12-14T12:49:52;8.30;99.90
7496;DHT22;3789;47.064;15.482;2023-12-14T12:52:23;8.40;99.90
7496;DHT22;3789;47.064;15.482;2023-12-14T12:54:52;8.50;99.90
7496;DHT22;3789;47.064;15.482;2023-12-14T13:02:22;8.50;99.90
7496;DHT22;3789;47.064;15.482;2023-12-14T13:04:54;8.60;99.90
7496;DHT22;3789;47.064;15.482;2023-12-14T13:07:26;8.60;99.90
7496;DHT22;3789;47.064;15.482;2023-12-14T13:27:57;8.80;99.90
7496;DHT22;3789;47.064;15.482;2023-12-14T13:30:28;8.80;99.90
7496;DHT22;3789;47.064;15.482;2023-12-14T13:32:56;8.80;99.90
7496;DHT22;3789;47.064;15.482;2023-12-14T13:35:31;8.70;99.90
7496;DHT22;3789;47.064;15.482;2023-12-14T13:38:03;8.70;99.90
7496;DHT22;3789;47.064;15.482;2023-12-14T13:40:32;8.70;99.90
7496;DHT22;3789;47.064;15.482;2023-12-14T13:42:59;8.70;99.90
7496;DHT22;3789;47.064;15.482;2023-12-14T13:45:33;8.70;99.90
7496;DHT22;3789;47.064;15.482;2023-12-14T13:48:02;8.70;99.90
7496;DHT22;3789;47.064;15.482;2023-12-14T13:50:31;8.70;99.90
7496;DHT22;3789;47.064;15.482;2023-12-14T13:53:07;8.70;99.90
7496;DHT22;3789;47.064;15.482;2023-12-14T13:55:36;8.70;99.90
7496;DHT22;3789;47.064;15.482;2023-12-14T13:58:04;8.60;99.90
7496;DHT22;3789;47.064;15.482;2023-12-14T14:00:34;8.50;99.90
7496;DHT22;3789;47.064;15.482;2023-12-14T14:03:03;8.50;99.90
7496;DHT22;3789;47.064;15.482;2023-12-14T14:05:34;8.60;99.90
7496;DHT22;3789;47.064;15.482;2023-12-14T14:08:02;8.50;99.90
7496;DHT22;3789;47.064;15.482;2023-12-14T14:10:45;8.60;99.90
7496;DHT22;3789;47.064;15.482;2023-12-14T14:13:14;8.50;99.90
7496;DHT22;3789;47.064;15.482;2023-12-14T14:15:45;8.50;99.90
7496;DHT22;3789;47.064;15.482;2023-12-14T14:18:18;8.50;99.90
7496;DHT22;3789;47.064;15.482;2023-12-14T14:20:56;8.50;99.90
7496;DHT22;3789;47.064;15.482;2023-12-14T14:23:25;8.60;99.90
7496;DHT22;3789;47.064;15.482;2023-12-14T14:25:55;8.60;99.90
7496;DHT22;3789;47.064;15.482;2023-12-14T14:28:24;8.50;99.90
7496;DHT22;3789;47.064;15.482;2023-12-14T14:30:53;8.50;99.90
7496;DHT22;3789;47.064;15.482;2023-12-14T14:33:23;8.40;99.90
7496;DHT22;3789;47.064;15.482;2023-12-14T14:35:56;8.30;99.90
7496;DHT22;3789;47.064;15.482;2023-12-14T14:38:24;8.20;99.90
7496;DHT22;3789;47.064;15.482;2023-12-14T14:40:54;8.10;99.90
7496;DHT22;3789;47.064;15.482;2023-12-14T14:43:22;8.10;99.90
7496;DHT22;3789;47.064;15.482;2023-12-14T14:45:52;8.00;99.90
7496;DHT22;3789;47.064;15.482;2023-12-14T14:48:22;7.90;99.90
7496;DHT22;3789;47.064;15.482;2023-12-14T14:50:52;7.80;99.90
7496;DHT22;3789;47.064;15.482;2023-12-14T14:53:32;7.90;99.90
7496;DHT22;3789;47.064;15.482;2023-12-14T14:56:04;7.70;99.90
7496;DHT22;3789;47.064;15.482;2023-12-14T14:58:33;7.70;99.90
7496;DHT22;3789;47.064;15.482;2023-12-14T15:01:12;7.60;99.90
7496;DHT22;3789;47.064;15.482;2023-12-14T15:03:46;7.40;99.90
7496;DHT22;3789;47.064;15.482;2023-12-14T15:06:24;7.40;99.90
7496;DHT22;3789;47.064;15.482;2023-12-14T15:09:01;7.20;99.90
7496;DHT22;3789;47.064;15.482;2023-12-14T15:11:35;7.30;99.90
7496;DHT22;3789;47.064;15.482;2023-12-14T15:14:04;7.30;99.90
7496;DHT22;3789;47.064;15.482;2023-12-14T15:16:35;7.50;99.90
7496;DHT22;3789;47.064;15.482;2023-12-14T15:19:05;7.40;99.90
7496;DHT22;3789;47.064;15.482;2023-12-14T15:21:34;7.50;99.90
7496;DHT22;3789;47.064;15.482;2023-12-14T15:24:04;7.50;99.90
7496;DHT22;3789;47.064;15.482;2023-12-14T15:26:34;7.40;99.90
7496;DHT22;3789;47.064;15.482;2023-12-14T15:29:02;7.10;99.90
7496;DHT22;3789;47.064;15.482;2023-12-14T15:31:35;7.00;99.90
7496;DHT22;3789;47.064;15.482;2023-12-14T15:34:04;7.00;99.90
7496;DHT22;3789;47.064;15.482;2023-12-14T15:36:40;6.90;99.90
7496;DHT22;3789;47.064;15.482;2023-12-14T15:39:18;7.10;99.90
7496;DHT22;3789;47.064;15.482;2023-12-14T15:41:47;7.10;99.90
7496;DHT22;3789;47.064;15.482;2023-12-14T15:44:15;7.10;99.90
7496;DHT22;3789;47.064;15.482;2023-12-14T15:46:52;7.10;99.90
7496;DHT22;3789;47.064;15.482;2023-12-14T15:49:20;7.30;99.90
7496;DHT22;3789;47.064;15.482;2023-12-14T15:51:49;7.50;99.90
7496;DHT22;3789;47.064;15.482;2023-12-14T15:54:26;7.50;99.90
7496;DHT22;3789;47.064;15.482;2023-12-14T15:57:00;7.40;99.90
7496;DHT22;3789;47.064;15.482;2023-12-14T15:59:44;7.50;99.90
7496;DHT22;3789;47.064;15.482;2023-12-14T16:02:22;7.80;99.90
7496;DHT22;3789;47.064;15.482;2023-12-14T16:04:58;7.50;99.90
7496;DHT22;3789;47.064;15.482;2023-12-14T16:07:39;7.30;99.90
7496;DHT22;3789;47.064;15.482;2023-12-14T16:10:17;7.30;99.90
7496;DHT22;3789;47.064;15.482;2023-12-14T16:12:52;7.30;99.90
7496;DHT22;3789;47.064;15.482;2023-12-14T16:15:23;7.10;99.90
7496;DHT22;3789;47.064;15.482;2023-12-14T16:17:58;6.90;99.90
7496;DHT22;3789;47.064;15.482;2023-12-14T16:20:32;6.70;99.90
7496;DHT22;3789;47.064;15.482;2023-12-14T16:23:01;6.50;99.90
7496;DHT22;3789;47.064;15.482;2023-12-14T16:25:37;6.40;99.90
7496;DHT22;3789;47.064;15.482;2023-12-14T16:28:18;6.40;99.90
7496;DHT22;3789;47.064;15.482;2023-12-14T16:30:50;6.40;99.90
7496;DHT22;3789;47.064;15.482;2023-12-14T16:33:18;6.40;99.90
7496;DHT22;3789;47.064;15.482;2023-12-14T16:35:49;6.30;99.90
7496;DHT22;3789;47.064;15.482;2023-12-14T16:38:18;6.40;99.90
7496;DHT22;3789;47.064;15.482;2023-12-14T16:40:48;6.60;99.90
7496;DHT22;3789;47.064;15.482;2023-12-14T16:43:17;6.50;99.90
7496;DHT22;3789;47.064;15.482;2023-12-14T16:45:48;6.40;99.90
7496;DHT22;3789;47.064;15.482;2023-12-14T16:48:22;6.50;99.90
7496;DHT22;3789;47.064;15.482;2023-12-14T16:50:50;6.30;99.90
7496;DHT22;3789;47.064;15.482;2023-12-14T16:53:27;6.20;99.90
7496;DHT22;3789;47.064;15.482;2023-12-14T16:55:58;6.10;99.90
7496;DHT22;3789;47.064;15.482;2023-12-14T16:58:31;6.00;99.90
7496;DHT22;3789;47.064;15.482;2023-12-14T17:01:03;6.00;99.90
7496;DHT22;3789;47.064;15.482;2023-12-14T17:03:33;5.90;99.90
7496;DHT22;3789;47.064;15.482;2023-12-14T17:06:09;6.00;99.90
7496;DHT22;3789;47.064;15.482;2023-12-14T17:08:43;6.00;99.90
7496;DHT22;3789;47.064;15.482;2023-12-14T17:11:20;6.10;99.90
7496;DHT22;3789;47.064;15.482;2023-12-14T17:13:48;5.90;99.90
7496;DHT22;3789;47.064;15.482;2023-12-14T17:16:22;6.00;99.90
7496;DHT22;3789;47.064;15.482;2023-12-14T17:18:51;6.00;99.90
7496;DHT22;3789;47.064;15.482;2023-12-14T17:21:25;6.10;99.90
7496;DHT22;3789;47.064;15.482;2023-12-14T17:24:04;6.00;99.90
7496;DHT22;3789;47.064;15.482;2023-12-14T17:26:38;6.00;99.90
7496;DHT22;3789;47.064;15.482;2023-12-14T17:29:09;6.10;99.90
7496;DHT22;3789;47.064;15.482;2023-12-14T17:31:47;6.20;99.90
7496;DHT22;3789;47.064;15.482;2023-12-14T17:34:19;6.10;99.90
7496;DHT22;3789;47.064;15.482;2023-12-14T17:36:59;6.10;99.90
7496;DHT22;3789;47.064;15.482;2023-12-14T17:39:28;6.10;99.90
7496;DHT22;3789;47.064;15.482;2023-12-14T17:41:57;6.30;99.90
7496;DHT22;3789;47.064;15.482;2023-12-14T17:44:26;6.40;99.90
7496;DHT22;3789;47.064;15.482;2023-12-14T17:46:56;6.30;99.90
7496;DHT22;3789;47.064;15.482;2023-12-14T17:49:26;6.50;99.90